sensor_id;sensor_type;location;lat;lon;timestamp;temperature;humidity
21759;DHT22;11041;50.854;20.580;2023-07-20T00:02:26;16.10;99.90
21759;DHT22;11041;50.854;20.580;2023-07-20T00:04:53;16.10;99.90
21759;DHT22;11041;50.854;20.580;2023-07-20T00:07:19;16.10;99.90
21759;DHT22;11041;50.854;20.580;2023-07-20T00:09:46;16.00;99.90
21759;DHT22;11041;50.854;20.580;2023-07-20T00:12:12;16.00;99.90
21759;DHT22;11041;50.854;20.580;2023-07-20T00:14:39;15.90;99.90
21759;DHT22;11041;50.854;20.580;2023-07-20T00:17:05;15.80;99.90
21759;DHT22;11041;50.854;20.580;2023-07-20T00:19:32;15.70;99.90
21759;DHT22;11041;50.854;20.580;2023-07-20T00:21:58;15.70;99.90
21759;DHT22;11041;50.854;20.580;2023-07-20T00:24:25;15.60;99.90
21759;DHT22;11041;50.854;20.580;2023-07-20T00:26:52;15.60;99.90
21759;DHT22;11041;50.854;20.580;2023-07-20T00:29:19;15.50;99.90
21759;DHT22;11041;50.854;20.580;2023-07-20T00:31:45;15.50;99.90
21759;DHT22;11041;50.854;20.580;2023-07-20T00:34:11;15.50;99.90
21759;DHT22;11041;50.854;20.580;2023-07-20T00:36:38;15.50;99.90
21759;DHT22;11041;50.854;20.580;2023-07-20T00:39:05;15.50;99.90
21759;DHT22;11041;50.854;20.580;2023-07-20T00:41:31;15.50;99.90
21759;DHT22;11041;50.854;20.580;2023-07-20T00:43:59;15.40;99.90
21759;DHT22;11041;50.854;20.580;2023-07-20T00:46:25;15.40;99.90
21759;DHT22;11041;50.854;20.580;2023-07-20T00:48:53;15.40;99.90
21759;DHT22;11041;50.854;20.580;2023-07-20T00:51:21;15.30;99.90
21759;DHT22;11041;50.854;20.580;2023-07-20T00:53:49;15.30;99.90
21759;DHT22;11041;50.854;20.580;2023-07-20T00:56:16;15.20;99.90
21759;DHT22;11041;50.854;20.580;2023-07-20T00:58:43;15.20;99.90
21759;DHT22;11041;50.854;20.580;2023-07-20T01:01:10;15.20;99.90
21759;DHT22;11041;50.854;20.580;2023-07-20T01:03:37;15.30;99.90
21759;DHT22;11041;50.854;20.580;2023-07-20T01:06:41;15.20;99.90
21759;DHT22;11041;50.854;20.580;2023-07-20T01:09:19;15.20;99.90
21759;DHT22;11041;50.854;20.580;2023-07-20T01:12:18;15.20;99.90
21759;DHT22;11041;50.854;20.580;2023-07-20T01:14:50;15.20;99.90
21759;DHT22;11041;50.854;20.580;2023-07-20T01:17:17;15.20;99.90
21759;DHT22;11041;50.854;20.580;2023-07-20T01:19:44;15.10;99.90
21759;DHT22;11041;50.854;20.580;2023-07-20T01:22:28;15.10;99.90
21759;DHT22;11041;50.854;20.580;2023-07-20T01:31:41;15.10;99.90
21759;DHT22;11041;50.854;20.580;2023-07-20T01:33:57;15.20;99.90
21759;DHT22;11041;50.854;20.580;2023-07-20T01:36:29;15.20;99.90
21759;DHT22;11041;50.854;20.580;2023-07-20T01:38:59;15.20;99.90
21759;DHT22;11041;50.854;20.580;2023-07-20T01:41:26;15.30;99.90
21759;DHT22;11041;50.854;20.580;2023-07-20T01:43:52;15.30;99.90
21759;DHT22;11041;50.854;20.580;2023-07-20T01:46:19;15.40;99.90
21759;DHT22;11041;50.854;20.580;2023-07-20T01:48:45;15.40;99.90
21759;DHT22;11041;50.854;20.580;2023-07-20T01:51:12;15.40;99.90
21759;DHT22;11041;50.854;20.580;2023-07-20T01:53:39;15.20;99.90
21759;DHT22;11041;50.854;20.580;2023-07-20T01:56:05;15.20;99.90
21759;DHT22;11041;50.854;20.580;2023-07-20T01:58:32;15.40;99.90
21759;DHT22;11041;50.854;20.580;2023-07-20T02:00:59;15.50;99.90
21759;DHT22;11041;50.854;20.580;2023-07-20T02:03:25;15.50;99.90
21759;DHT22;11041;50.854;20.580;2023-07-20T02:05:53;15.60;99.90
21759;DHT22;11041;50.854;20.580;2023-07-20T02:08:19;15.70;99.90
21759;DHT22;11041;50.854;20.580;2023-07-20T02:10:47;15.80;99.90
21759;DHT22;11041;50.854;20.580;2023-07-20T02:13:15;15.80;99.90
21759;DHT22;11041;50.854;20.580;2023-07-20T02:15:42;15.80;99.90
21759;DHT22;11041;50.854;20.580;2023-07-20T02:18:09;15.80;99.90
21759;DHT22;11041;50.854;20.580;2023-07-20T02:20:36;15.80;99.90
21759;DHT22;11041;50.854;20.580;2023-07-20T02:23:02;15.80;99.90
21759;DHT22;11041;50.854;20.580;2023-07-20T02:25:29;15.80;99.90
21759;DHT22;11041;50.854;20.580;2023-07-20T02:27:56;15.70;99.90
21759;DHT22;11041;50.854;20.580;2023-07-20T02:30:23;15.50;99.90
21759;DHT22;11041;50.854;20.580;2023-07-20T02:32:49;15.50;99.90
21759;DHT22;11041;50.854;20.580;2023-07-20T02:35:16;15.30;99.90
21759;DHT22;11041;50.854;20.580;2023-07-20T02:37:42;15.30;99.90
21759;DHT22;11041;50.854;20.580;2023-07-20T02:40:09;15.40;99.90
21759;DHT22;11041;50.854;20.580;2023-07-20T02:42:36;15.50;99.90
21759;DHT22;11041;50.854;20.580;2023-07-20T02:45:03;15.60;99.90
21759;DHT22;11041;50.854;20.580;2023-07-20T02:47:31;15.60;99.90
21759;DHT22;11041;50.854;20.580;2023-07-20T02:49:58;15.70;99.90
21759;DHT22;11041;50.854;20.580;2023-07-20T02:52:24;15.60;99.90
21759;DHT22;11041;50.854;20.580;2023-07-20T02:54:51;15.60;99.90
21759;DHT22;11041;50.854;20.580;2023-07-20T02:57:17;15.70;99.90
21759;DHT22;11041;50.854;20.580;2023-07-20T02:59:44;15.90;99.90
21759;DHT22;11041;50.854;20.580;2023-07-20T03:02:10;15.90;99.90
21759;DHT22;11041;50.854;20.580;2023-07-20T03:04:37;16.00;99.90
21759;DHT22;11041;50.854;20.580;2023-07-20T03:07:04;16.10;99.90
21759;DHT22;11041;50.854;20.580;2023-07-20T03:09:31;16.10;99.90
21759;DHT22;11041;50.854;20.580;2023-07-20T03:11:58;16.00;99.90
21759;DHT22;11041;50.854;20.580;2023-07-20T03:14:25;15.90;99.90
21759;DHT22;11041;50.854;20.580;2023-07-20T03:16:51;15.70;99.90
21759;DHT22;11041;50.854;20.580;2023-07-20T03:19:18;15.90;99.90
21759;DHT22;11041;50.854;20.580;2023-07-20T03:21:44;16.00;99.90
21759;DHT22;11041;50.854;20.580;2023-07-20T03:24:11;16.00;99.90
21759;DHT22;11041;50.854;20.580;2023-07-20T03:26:38;15.90;99.90
21759;DHT22;11041;50.854;20.580;2023-07-20T03:29:05;16.00;99.90
21759;DHT22;11041;50.854;20.580;2023-07-20T03:31:32;16.00;99.90
21759;DHT22;11041;50.854;20.580;2023-07-20T03:33:59;16.10;99.90
21759;DHT22;11041;50.854;20.580;2023-07-20T03:36:25;16.10;99.90
21759;DHT22;11041;50.854;20.580;2023-07-20T03:38:52;16.10;99.90
21759;DHT22;11041;50.854;20.580;2023-07-20T03:41:18;16.20;99.90
21759;DHT22;11041;50.854;20.580;2023-07-20T03:43:46;16.00;99.90
21759;DHT22;11041;50.854;20.580;2023-07-20T03:46:12;15.90;99.90
21759;DHT22;11041;50.854;20.580;2023-07-20T03:48:39;16.00;99.90
21759;DHT22;11041;50.854;20.580;2023-07-20T03:51:05;16.10;99.90
21759;DHT22;11041;50.854;20.580;2023-07-20T03:53:31;16.10;99.90
21759;DHT22;11041;50.854;20.580;2023-07-20T03:55:58;16.10;99.90
21759;DHT22;11041;50.854;20.580;2023-07-20T03:58:25;16.00;99.90
21759;DHT22;11041;50.854;20.580;2023-07-20T04:00:52;16.00;99.90
21759;DHT22;11041;50.854;20.580;2023-07-20T04:03:19;16.00;99.90
21759;DHT22;11041;50.854;20.580;2023-07-20T04:05:47;15.90;99.90
21759;DHT22;11041;50.854;20.580;2023-07-20T04:08:15;15.70;99.90
21759;DHT22;11041;50.854;20.580;2023-07-20T04:10:45;15.50;99.90
21759;DHT22;11041;50.854;20.580;2023-07-20T04:13:12;15.10;99.90
21759;DHT22;11041;50.854;20.580;2023-07-20T04:15:39;15.00;99.90
21759;DHT22;11041;50.854;20.580;2023-07-20T04:18:07;14.90;99.90
21759;DHT22;11041;50.854;20.580;2023-07-20T04:20:33;15.10;99.90
21759;DHT22;11041;50.854;20.580;2023-07-20T04:23:00;15.20;99.90
21759;DHT22;11041;50.854;20.580;2023-07-20T04:25:26;15.30;99.90
21759;DHT22;11041;50.854;20.580;2023-07-20T04:27:53;15.40;99.90
21759;DHT22;11041;50.854;20.580;2023-07-20T04:30:19;15.50;99.90
21759;DHT22;11041;50.854;20.580;2023-07-20T04:32:48;15.40;99.90
21759;DHT22;11041;50.854;20.580;2023-07-20T04:38:17;15.50;99.90
21759;DHT22;11041;50.854;20.580;2023-07-20T04:40:48;15.50;99.90
21759;DHT22;11041;50.854;20.580;2023-07-20T04:43:17;15.60;99.90
21759;DHT22;11041;50.854;20.580;2023-07-20T04:45:44;15.60;99.90
21759;DHT22;11041;50.854;20.580;2023-07-20T04:48:13;15.50;99.90
21759;DHT22;11041;50.854;20.580;2023-07-20T04:50:42;15.30;99.90
21759;DHT22;11041;50.854;20.580;2023-07-20T04:53:11;15.40;99.90
21759;DHT22;11041;50.854;20.580;2023-07-20T04:55:39;15.50;99.90
21759;DHT22;11041;50.854;20.580;2023-07-20T04:58:07;15.20;99.90
21759;DHT22;11041;50.854;20.580;2023-07-20T05:00:34;15.30;99.90
21759;DHT22;11041;50.854;20.580;2023-07-20T05:03:01;15.30;99.90
21759;DHT22;11041;50.854;20.580;2023-07-20T05:05:27;15.40;99.90
21759;DHT22;11041;50.854;20.580;2023-07-20T05:07:54;15.50;99.90
21759;DHT22;11041;50.854;20.580;2023-07-20T05:10:20;15.60;99.90
21759;DHT22;11041;50.854;20.580;2023-07-20T05:12:47;15.70;99.90
21759;DHT22;11041;50.854;20.580;2023-07-20T05:15:13;15.60;99.90
21759;DHT22;11041;50.854;20.580;2023-07-20T05:17:39;15.50;99.90
21759;DHT22;11041;50.854;20.580;2023-07-20T05:20:07;15.30;99.90
21759;DHT22;11041;50.854;20.580;2023-07-20T05:22:36;15.20;99.90
21759;DHT22;11041;50.854;20.580;2023-07-20T05:25:09;15.20;99.90
21759;DHT22;11041;50.854;20.580;2023-07-20T05:27:38;15.30;99.90
21759;DHT22;11041;50.854;20.580;2023-07-20T05:30:06;15.40;99.90
21759;DHT22;11041;50.854;20.580;2023-07-20T05:32:33;15.50;99.90
21759;DHT22;11041;50.854;20.580;2023-07-20T05:35:00;15.60;99.90
21759;DHT22;11041;50.854;20.580;2023-07-20T05:37:26;15.50;99.90
21759;DHT22;11041;50.854;20.580;2023-07-20T05:39:53;15.40;99.90
21759;DHT22;11041;50.854;20.580;2023-07-20T05:42:19;15.50;99.90
21759;DHT22;11041;50.854;20.580;2023-07-20T05:44:45;15.60;99.90
21759;DHT22;11041;50.854;20.580;2023-07-20T05:47:14;15.70;99.90
21759;DHT22;11041;50.854;20.580;2023-07-20T05:49:40;15.60;99.90
21759;DHT22;11041;50.854;20.580;2023-07-20T05:52:07;15.40;99.90
21759;DHT22;11041;50.854;20.580;2023-07-20T05:54:33;15.40;99.90
21759;DHT22;11041;50.854;20.580;2023-07-20T05:57:00;15.50;99.90
21759;DHT22;11041;50.854;20.580;2023-07-20T05:59:27;15.70;99.90
21759;DHT22;11041;50.854;20.580;2023-07-20T06:01:55;15.60;99.90
21759;DHT22;11041;50.854;20.580;2023-07-20T06:04:22;15.60;99.90
21759;DHT22;11041;50.854;20.580;2023-07-20T06:06:49;15.80;99.90
21759;DHT22;11041;50.854;20.580;2023-07-20T06:09:15;15.90;99.90
21759;DHT22;11041;50.854;20.580;2023-07-20T06:11:43;16.10;99.90
21759;DHT22;11041;50.854;20.580;2023-07-20T06:14:09;16.20;99.90
21759;DHT22;11041;50.854;20.580;2023-07-20T06:16:36;16.50;99.90
21759;DHT22;11041;50.854;20.580;2023-07-20T06:19:02;16.60;99.90
21759;DHT22;11041;50.854;20.580;2023-07-20T06:21:30;16.50;99.90
21759;DHT22;11041;50.854;20.580;2023-07-20T06:23:58;16.30;99.90
21759;DHT22;11041;50.854;20.580;2023-07-20T06:26:25;16.40;99.90
21759;DHT22;11041;50.854;20.580;2023-07-20T06:28:51;16.30;99.90
21759;DHT22;11041;50.854;20.580;2023-07-20T06:31:18;16.20;99.90
21759;DHT22;11041;50.854;20.580;2023-07-20T06:33:44;16.50;99.90
21759;DHT22;11041;50.854;20.580;2023-07-20T06:36:11;16.70;99.90
21759;DHT22;11041;50.854;20.580;2023-07-20T06:38:37;16.90;99.90
21759;DHT22;11041;50.854;20.580;2023-07-20T06:41:03;16.70;99.90
21759;DHT22;11041;50.854;20.580;2023-07-20T06:43:30;16.80;99.90
21759;DHT22;11041;50.854;20.580;2023-07-20T06:45:56;17.00;99.90
21759;DHT22;11041;50.854;20.580;2023-07-20T06:48:22;17.10;99.90
21759;DHT22;11041;50.854;20.580;2023-07-20T06:50:50;17.20;99.90
21759;DHT22;11041;50.854;20.580;2023-07-20T06:53:17;17.30;99.90
21759;DHT22;11041;50.854;20.580;2023-07-20T06:55:44;17.40;99.90
21759;DHT22;11041;50.854;20.580;2023-07-20T06:58:11;17.50;99.90
21759;DHT22;11041;50.854;20.580;2023-07-20T07:00:38;17.60;99.90
21759;DHT22;11041;50.854;20.580;2023-07-20T07:03:04;17.70;99.90
21759;DHT22;11041;50.854;20.580;2023-07-20T07:05:31;17.50;99.90
21759;DHT22;11041;50.854;20.580;2023-07-20T07:08:00;17.60;99.90
21759;DHT22;11041;50.854;20.580;2023-07-20T07:10:27;17.60;99.90
21759;DHT22;11041;50.854;20.580;2023-07-20T07:12:53;17.70;99.90
21759;DHT22;11041;50.854;20.580;2023-07-20T07:15:20;17.60;99.90
21759;DHT22;11041;50.854;20.580;2023-07-20T07:17:46;17.70;99.90
21759;DHT22;11041;50.854;20.580;2023-07-20T07:20:12;17.70;99.90
21759;DHT22;11041;50.854;20.580;2023-07-20T07:22:39;17.70;99.90
21759;DHT22;11041;50.854;20.580;2023-07-20T07:25:06;17.60;99.90
21759;DHT22;11041;50.854;20.580;2023-07-20T07:27:33;17.70;99.90
21759;DHT22;11041;50.854;20.580;2023-07-20T07:30:01;17.70;99.90
21759;DHT22;11041;50.854;20.580;2023-07-20T07:32:28;17.70;99.90
21759;DHT22;11041;50.854;20.580;2023-07-20T07:34:55;17.50;99.90
21759;DHT22;11041;50.854;20.580;2023-07-20T07:37:21;17.60;99.90
21759;DHT22;11041;50.854;20.580;2023-07-20T07:39:49;17.80;99.90
21759;DHT22;11041;50.854;20.580;2023-07-20T07:42:15;17.70;99.90
21759;DHT22;11041;50.854;20.580;2023-07-20T07:44:42;17.70;99.90
21759;DHT22;11041;50.854;20.580;2023-07-20T07:47:09;18.00;99.90
21759;DHT22;11041;50.854;20.580;2023-07-20T07:49:36;18.10;99.90
21759;DHT22;11041;50.854;20.580;2023-07-20T07:52:03;18.30;99.90
21759;DHT22;11041;50.854;20.580;2023-07-20T07:54:30;18.20;99.90
21759;DHT22;11041;50.854;20.580;2023-07-20T07:56:56;18.30;99.90
21759;DHT22;11041;50.854;20.580;2023-07-20T07:59:23;18.20;99.90
21759;DHT22;11041;50.854;20.580;2023-07-20T08:01:49;18.30;99.90
21759;DHT22;11041;50.854;20.580;2023-07-20T08:04:16;18.40;99.90
21759;DHT22;11041;50.854;20.580;2023-07-20T08:06:43;18.30;99.90
21759;DHT22;11041;50.854;20.580;2023-07-20T08:09:10;18.50;99.90
21759;DHT22;11041;50.854;20.580;2023-07-20T08:11:39;18.60;99.90
21759;DHT22;11041;50.854;20.580;2023-07-20T08:14:06;18.90;99.90
21759;DHT22;11041;50.854;20.580;2023-07-20T08:16:32;19.10;99.90
21759;DHT22;11041;50.854;20.580;2023-07-20T08:18:59;18.80;99.90
21759;DHT22;11041;50.854;20.580;2023-07-20T08:21:26;18.90;99.90
21759;DHT22;11041;50.854;20.580;2023-07-20T08:23:52;19.00;99.90
21759;DHT22;11041;50.854;20.580;2023-07-20T08:26:18;18.90;99.90
21759;DHT22;11041;50.854;20.580;2023-07-20T08:28:48;19.00;99.90
21759;DHT22;11041;50.854;20.580;2023-07-20T08:31:14;19.30;99.90
21759;DHT22;11041;50.854;20.580;2023-07-20T08:33:41;19.50;99.90
21759;DHT22;11041;50.854;20.580;2023-07-20T08:36:07;19.60;99.90
21759;DHT22;11041;50.854;20.580;2023-07-20T08:38:35;19.70;99.90
21759;DHT22;11041;50.854;20.580;2023-07-20T08:41:01;19.60;99.90
21759;DHT22;11041;50.854;20.580;2023-07-20T08:43:28;19.50;99.90
21759;DHT22;11041;50.854;20.580;2023-07-20T08:45:56;19.60;99.90
21759;DHT22;11041;50.854;20.580;2023-07-20T08:48:24;19.90;99.90
21759;DHT22;11041;50.854;20.580;2023-07-20T08:50:53;20.00;99.90
21759;DHT22;11041;50.854;20.580;2023-07-20T08:53:20;20.00;99.90
21759;DHT22;11041;50.854;20.580;2023-07-20T08:55:49;20.20;99.90
21759;DHT22;11041;50.854;20.580;2023-07-20T08:58:18;20.20;99.90
21759;DHT22;11041;50.854;20.580;2023-07-20T09:00:45;20.20;99.90
21759;DHT22;11041;50.854;20.580;2023-07-20T09:03:14;20.10;99.90
21759;DHT22;11041;50.854;20.580;2023-07-20T09:05:41;20.00;99.90
21759;DHT22;11041;50.854;20.580;2023-07-20T09:08:07;20.10;99.90
21759;DHT22;11041;50.854;20.580;2023-07-20T09:10:34;20.30;99.90
21759;DHT22;11041;50.854;20.580;2023-07-20T09:13:00;20.20;99.90
21759;DHT22;11041;50.854;20.580;2023-07-20T09:15:28;20.00;99.90
21759;DHT22;11041;50.854;20.580;2023-07-20T09:17:56;20.40;99.90
21759;DHT22;11041;50.854;20.580;2023-07-20T09:20:22;20.60;99.90
21759;DHT22;11041;50.854;20.580;2023-07-20T09:22:50;20.80;99.90
21759;DHT22;11041;50.854;20.580;2023-07-20T09:25:19;21.00;99.90
21759;DHT22;11041;50.854;20.580;2023-07-20T09:27:49;21.00;99.90
21759;DHT22;11041;50.854;20.580;2023-07-20T09:30:16;20.90;99.90
21759;DHT22;11041;50.854;20.580;2023-07-20T09:32:47;20.90;99.90
21759;DHT22;11041;50.854;20.580;2023-07-20T09:35:17;21.00;99.90
21759;DHT22;11041;50.854;20.580;2023-07-20T09:37:58;20.80;99.90
21759;DHT22;11041;50.854;20.580;2023-07-20T09:40:29;20.70;99.90
21759;DHT22;11041;50.854;20.580;2023-07-20T09:42:55;20.80;99.90
21759;DHT22;11041;50.854;20.580;2023-07-20T09:45:33;20.70;99.90
21759;DHT22;11041;50.854;20.580;2023-07-20T09:48:05;20.60;99.90
21759;DHT22;11041;50.854;20.580;2023-07-20T09:50:43;20.50;99.90
21759;DHT22;11041;50.854;20.580;2023-07-20T09:53:17;20.30;99.90
21759;DHT22;11041;50.854;20.580;2023-07-20T09:55:45;20.20;99.90
21759;DHT22;11041;50.854;20.580;2023-07-20T09:58:14;20.20;99.90
21759;DHT22;11041;50.854;20.580;2023-07-20T10:00:43;20.20;99.90
21759;DHT22;11041;50.854;20.580;2023-07-20T10:03:20;20.20;99.90
21759;DHT22;11041;50.854;20.580;2023-07-20T10:05:54;20.30;99.90
21759;DHT22;11041;50.854;20.580;2023-07-20T10:08:25;20.50;99.90
21759;DHT22;11041;50.854;20.580;2023-07-20T10:10:52;20.70;99.90
21759;DHT22;11041;50.854;20.580;2023-07-20T10:13:24;20.70;99.90
21759;DHT22;11041;50.854;20.580;2023-07-20T10:16:03;20.90;99.90
21759;DHT22;11041;50.854;20.580;2023-07-20T10:18:41;20.90;99.90
21759;DHT22;11041;50.854;20.580;2023-07-20T10:21:17;20.90;99.90
21759;DHT22;11041;50.854;20.580;2023-07-20T10:23:46;20.70;99.90
21759;DHT22;11041;50.854;20.580;2023-07-20T10:26:14;20.10;99.90
21759;DHT22;11041;50.854;20.580;2023-07-20T10:28:40;20.10;99.90
21759;DHT22;11041;50.854;20.580;2023-07-20T10:31:09;19.10;99.90
21759;DHT22;11041;50.854;20.580;2023-07-20T10:33:38;18.70;99.90
21759;DHT22;11041;50.854;20.580;2023-07-20T10:36:05;18.70;99.90
21759;DHT22;11041;50.854;20.580;2023-07-20T10:38:40;18.90;99.90
21759;DHT22;11041;50.854;20.580;2023-07-20T10:41:20;19.00;99.90
21759;DHT22;11041;50.854;20.580;2023-07-20T10:44:08;18.80;99.90
21759;DHT22;11041;50.854;20.580;2023-07-20T10:49:08;18.80;99.90
21759;DHT22;11041;50.854;20.580;2023-07-20T10:51:48;18.70;99.90
21759;DHT22;11041;50.854;20.580;2023-07-20T10:56:51;19.10;99.90
21759;DHT22;11041;50.854;20.580;2023-07-20T10:59:19;19.30;99.90
21759;DHT22;11041;50.854;20.580;2023-07-20T11:02:09;19.50;99.90
21759;DHT22;11041;50.854;20.580;2023-07-20T11:04:44;19.50;99.90
21759;DHT22;11041;50.854;20.580;2023-07-20T11:07:16;19.70;99.90
21759;DHT22;11041;50.854;20.580;2023-07-20T11:09:44;19.90;99.90
21759;DHT22;11041;50.854;20.580;2023-07-20T11:12:12;19.90;99.90
21759;DHT22;11041;50.854;20.580;2023-07-20T11:15:01;20.00;99.90
21759;DHT22;11041;50.854;20.580;2023-07-20T11:17:31;20.10;99.90
21759;DHT22;11041;50.854;20.580;2023-07-20T11:20:00;20.10;99.90
21759;DHT22;11041;50.854;20.580;2023-07-20T11:22:27;20.30;99.90
21759;DHT22;11041;50.854;20.580;2023-07-20T11:24:57;20.20;99.90
21759;DHT22;11041;50.854;20.580;2023-07-20T11:27:24;20.30;99.90
21759;DHT22;11041;50.854;20.580;2023-07-20T11:29:51;20.30;99.90
21759;DHT22;11041;50.854;20.580;2023-07-20T11:32:24;20.60;99.90
21759;DHT22;11041;50.854;20.580;2023-07-20T11:34:51;20.80;99.90
21759;DHT22;11041;50.854;20.580;2023-07-20T11:37:18;20.70;99.90
21759;DHT22;11041;50.854;20.580;2023-07-20T11:39:44;20.90;99.90
21759;DHT22;11041;50.854;20.580;2023-07-20T11:42:11;21.00;99.90
21759;DHT22;11041;50.854;20.580;2023-07-20T11:44:38;20.90;99.90
21759;DHT22;11041;50.854;20.580;2023-07-20T11:47:10;21.20;99.90
21759;DHT22;11041;50.854;20.580;2023-07-20T11:49:42;21.80;99.90
21759;DHT22;11041;50.854;20.580;2023-07-20T11:52:11;22.00;99.90
21759;DHT22;11041;50.854;20.580;2023-07-20T11:54:42;21.60;99.90
21759;DHT22;11041;50.854;20.580;2023-07-20T11:57:19;21.70;99.90
21759;DHT22;11041;50.854;20.580;2023-07-20T12:00:00;21.80;99.90
21759;DHT22;11041;50.854;20.580;2023-07-20T12:02:32;21.80;99.90
21759;DHT22;11041;50.854;20.580;2023-07-20T12:04:59;21.90;99.90
21759;DHT22;11041;50.854;20.580;2023-07-20T12:07:27;21.60;99.90
21759;DHT22;11041;50.854;20.580;2023-07-20T12:10:08;21.70;99.90
21759;DHT22;11041;50.854;20.580;2023-07-20T12:12:40;21.90;99.90
21759;DHT22;11041;50.854;20.580;2023-07-20T12:17:51;22.00;99.90
21759;DHT22;11041;50.854;20.580;2023-07-20T12:23:10;22.70;99.90
21759;DHT22;11041;50.854;20.580;2023-07-20T12:28:10;22.70;99.90
21759;DHT22;11041;50.854;20.580;2023-07-20T12:30:42;23.10;99.90
21759;DHT22;11041;50.854;20.580;2023-07-20T12:33:12;23.20;99.90
21759;DHT22;11041;50.854;20.580;2023-07-20T12:35:41;23.50;99.90
21759;DHT22;11041;50.854;20.580;2023-07-20T12:38:09;23.80;99.90
21759;DHT22;11041;50.854;20.580;2023-07-20T12:40:36;23.30;99.90
21759;DHT22;11041;50.854;20.580;2023-07-20T12:43:02;23.30;99.90
21759;DHT22;11041;50.854;20.580;2023-07-20T12:45:30;23.20;99.90
21759;DHT22;11041;50.854;20.580;2023-07-20T12:47:56;22.70;99.90
21759;DHT22;11041;50.854;20.580;2023-07-20T12:50:23;22.50;99.90
21759;DHT22;11041;50.854;20.580;2023-07-20T12:52:49;22.20;99.90
21759;DHT22;11041;50.854;20.580;2023-07-20T12:55:16;22.30;99.90
21759;DHT22;11041;50.854;20.580;2023-07-20T12:57:43;23.20;99.90
21759;DHT22;11041;50.854;20.580;2023-07-20T13:00:10;23.70;99.90
21759;DHT22;11041;50.854;20.580;2023-07-20T13:02:38;23.40;99.90
21759;DHT22;11041;50.854;20.580;2023-07-20T13:05:06;23.30;99.90
21759;DHT22;11041;50.854;20.580;2023-07-20T13:07:34;22.70;99.90
21759;DHT22;11041;50.854;20.580;2023-07-20T13:10:04;23.50;99.90
21759;DHT22;11041;50.854;20.580;2023-07-20T13:12:32;23.90;99.90
21759;DHT22;11041;50.854;20.580;2023-07-20T13:15:02;23.90;99.90
21759;DHT22;11041;50.854;20.580;2023-07-20T13:17:35;23.90;99.90
21759;DHT22;11041;50.854;20.580;2023-07-20T13:20:03;24.10;99.90
21759;DHT22;11041;50.854;20.580;2023-07-20T13:22:32;23.90;99.90
21759;DHT22;11041;50.854;20.580;2023-07-20T13:25:00;23.90;99.90
21759;DHT22;11041;50.854;20.580;2023-07-20T13:27:27;23.80;99.90
21759;DHT22;11041;50.854;20.580;2023-07-20T13:29:53;23.70;99.90
21759;DHT22;11041;50.854;20.580;2023-07-20T13:32:21;23.60;99.90
21759;DHT22;11041;50.854;20.580;2023-07-20T13:34:48;23.60;99.90
21759;DHT22;11041;50.854;20.580;2023-07-20T13:37:15;23.70;99.90
21759;DHT22;11041;50.854;20.580;2023-07-20T13:39:45;23.70;99.90
21759;DHT22;11041;50.854;20.580;2023-07-20T13:42:11;23.70;99.90
21759;DHT22;11041;50.854;20.580;2023-07-20T13:44:38;23.70;99.90
21759;DHT22;11041;50.854;20.580;2023-07-20T13:47:05;24.20;99.90
21759;DHT22;11041;50.854;20.580;2023-07-20T13:49:32;24.20;99.90
21759;DHT22;11041;50.854;20.580;2023-07-20T13:51:58;23.90;99.90
21759;DHT22;11041;50.854;20.580;2023-07-20T13:54:25;24.00;99.90
21759;DHT22;11041;50.854;20.580;2023-07-20T13:56:52;24.20;99.90
21759;DHT22;11041;50.854;20.580;2023-07-20T13:59:18;23.70;99.90
21759;DHT22;11041;50.854;20.580;2023-07-20T14:01:45;23.60;99.90
21759;DHT22;11041;50.854;20.580;2023-07-20T14:04:12;23.40;99.90
21759;DHT22;11041;50.854;20.580;2023-07-20T14:06:39;23.20;99.90
21759;DHT22;11041;50.854;20.580;2023-07-20T14:09:05;22.90;99.90
21759;DHT22;11041;50.854;20.580;2023-07-20T14:11:32;22.50;99.90
21759;DHT22;11041;50.854;20.580;2023-07-20T14:13:58;22.40;99.90
21759;DHT22;11041;50.854;20.580;2023-07-20T14:16:25;22.20;99.90
21759;DHT22;11041;50.854;20.580;2023-07-20T14:18:52;22.20;99.90
21759;DHT22;11041;50.854;20.580;2023-07-20T14:21:21;22.00;99.90
21759;DHT22;11041;50.854;20.580;2023-07-20T14:23:50;21.30;99.90
21759;DHT22;11041;50.854;20.580;2023-07-20T14:26:17;21.20;99.90
21759;DHT22;11041;50.854;20.580;2023-07-20T14:28:44;21.20;99.90
21759;DHT22;11041;50.854;20.580;2023-07-20T14:31:10;20.70;99.90
21759;DHT22;11041;50.854;20.580;2023-07-20T14:33:37;20.70;99.90
21759;DHT22;11041;50.854;20.580;2023-07-20T14:36:04;20.50;99.90
21759;DHT22;11041;50.854;20.580;2023-07-20T14:38:31;20.60;99.90
21759;DHT22;11041;50.854;20.580;2023-07-20T14:40:59;20.80;99.90
21759;DHT22;11041;50.854;20.580;2023-07-20T14:43:26;20.60;99.90
21759;DHT22;11041;50.854;20.580;2023-07-20T14:45:52;21.10;99.90
21759;DHT22;11041;50.854;20.580;2023-07-20T14:48:20;21.50;99.90
21759;DHT22;11041;50.854;20.580;2023-07-20T14:50:47;20.90;99.90
21759;DHT22;11041;50.854;20.580;2023-07-20T14:53:14;20.30;99.90
21759;DHT22;11041;50.854;20.580;2023-07-20T14:55:41;20.00;99.90
21759;DHT22;11041;50.854;20.580;2023-07-20T14:58:08;19.80;99.90
21759;DHT22;11041;50.854;20.580;2023-07-20T15:00:35;19.90;99.90
21759;DHT22;11041;50.854;20.580;2023-07-20T15:03:02;19.70;99.90
21759;DHT22;11041;50.854;20.580;2023-07-20T15:05:28;19.80;99.90
21759;DHT22;11041;50.854;20.580;2023-07-20T15:07:55;19.80;99.90
21759;DHT22;11041;50.854;20.580;2023-07-20T15:10:21;19.70;99.90
21759;DHT22;11041;50.854;20.580;2023-07-20T15:12:48;19.60;99.90
21759;DHT22;11041;50.854;20.580;2023-07-20T15:15:15;20.10;99.90
21759;DHT22;11041;50.854;20.580;2023-07-20T15:17:43;20.30;99.90
21759;DHT22;11041;50.854;20.580;2023-07-20T15:20:12;21.10;99.90
21759;DHT22;11041;50.854;20.580;2023-07-20T15:22:40;21.00;99.90
21759;DHT22;11041;50.854;20.580;2023-07-20T15:25:08;20.40;99.90
21759;DHT22;11041;50.854;20.580;2023-07-20T15:27:38;20.50;99.90
21759;DHT22;11041;50.854;20.580;2023-07-20T15:30:10;20.10;99.90
21759;DHT22;11041;50.854;20.580;2023-07-20T15:32:36;19.40;99.90
21759;DHT22;11041;50.854;20.580;2023-07-20T15:35:03;19.40;99.90
21759;DHT22;11041;50.854;20.580;2023-07-20T15:37:32;19.70;99.90
21759;DHT22;11041;50.854;20.580;2023-07-20T15:39:58;19.40;99.90
21759;DHT22;11041;50.854;20.580;2023-07-20T15:42:26;19.40;99.90
21759;DHT22;11041;50.854;20.580;2023-07-20T15:44:53;19.20;99.90